createdAt,value
2019-05-05T00:00:17.703Z,962.78
2019-05-05T00:01:17.651Z,962.83
2019-05-05T00:02:17.590Z,962.82
2019-05-05T00:03:17.577Z,962.80
2019-05-05T00:04:17.473Z,962.85
2019-05-05T00:05:17.416Z,962.84
2019-05-05T00:06:17.399Z,962.82
2019-05-05T00:07:17.299Z,962.88
2019-05-05T00:08:17.238Z,962.82
2019-05-05T00:09:17.185Z,962.87
2019-05-05T00:10:17.126Z,962.82
2019-05-05T00:11:17.116Z,962.83
2019-05-05T00:12:17.011Z,962.82
2019-05-05T00:13:16.951Z,962.82
2019-05-05T00:14:16.894Z,962.80
2019-05-05T00:15:16.839Z,962.82
2019-05-05T00:16:16.814Z,962.84
2019-05-05T00:17:16.720Z,962.86
2019-05-05T00:18:16.660Z,962.89
2019-05-05T00:19:29.772Z,962.87
2019-05-05T00:20:16.580Z,962.89
2019-05-05T00:21:16.512Z,962.92
2019-05-05T00:22:16.428Z,962.92
2019-05-05T00:23:16.373Z,962.92
2019-05-05T00:24:16.313Z,962.95
2019-05-05T00:25:16.289Z,962.97
2019-05-05T00:26:16.233Z,963.00
2019-05-05T00:27:16.174Z,962.99
2019-05-05T00:28:16.084Z,963.02
2019-05-05T00:29:16.024Z,963.02
2019-05-05T00:30:15.969Z,963.06
2019-05-05T00:31:15.913Z,963.08
2019-05-05T00:32:15.888Z,963.09
2019-05-05T00:33:15.798Z,963.09
2019-05-05T00:34:15.737Z,963.11
2019-05-05T00:35:15.713Z,963.14
2019-05-05T00:36:15.623Z,963.17
2019-05-05T00:37:15.562Z,963.22
2019-05-05T00:38:15.535Z,963.20
2019-05-05T00:39:15.448Z,963.21
2019-05-05T00:40:15.390Z,963.24
2019-05-05T00:41:15.335Z,963.24
2019-05-05T00:42:15.559Z,963.27
2019-05-05T00:43:15.245Z,963.24
2019-05-05T00:44:15.460Z,963.26
2019-05-05T00:45:15.102Z,963.30
2019-05-05T00:46:16.498Z,963.27
2019-05-05T00:47:14.983Z,963.29
2019-05-05T00:48:15.409Z,963.30
2019-05-05T00:49:14.871Z,963.29
2019-05-05T00:50:14.844Z,963.30
2019-05-05T00:51:15.152Z,963.31
2019-05-05T00:52:14.697Z,963.29
2019-05-05T00:53:14.760Z,963.30
2019-05-05T00:54:14.946Z,963.31
2019-05-05T00:55:15.118Z,963.27
2019-05-05T00:56:14.565Z,963.33
2019-05-05T00:57:14.974Z,963.35
2019-05-05T00:58:14.407Z,963.30
2019-05-05T00:59:14.735Z,963.29
2019-05-05T01:00:15.207Z,963.33
2019-05-05T01:01:14.479Z,963.34
2019-05-05T01:02:15.049Z,963.38
2019-05-05T01:03:15.314Z,963.36
2019-05-05T01:04:14.517Z,963.42
2019-05-05T01:05:14.914Z,963.43
2019-05-05T01:06:15.101Z,963.44
2019-05-05T01:07:14.369Z,963.45
2019-05-05T01:08:14.300Z,963.45
2019-05-05T01:09:14.864Z,963.46
2019-05-05T01:10:14.267Z,963.46
2019-05-05T01:11:14.478Z,963.44
2019-05-05T01:12:14.923Z,963.47
2019-05-05T01:13:15.182Z,963.43
2019-05-05T01:14:14.449Z,963.46
2019-05-05T01:15:14.986Z,963.45
2019-05-05T01:16:15.170Z,963.41
2019-05-05T01:17:14.725Z,963.46
2019-05-05T01:18:15.106Z,963.39
2019-05-05T01:19:14.958Z,963.42
2019-05-05T01:20:14.620Z,963.48
2019-05-05T01:21:14.927Z,963.49
2019-05-05T01:22:14.413Z,963.51
2019-05-05T01:23:14.915Z,963.49
2019-05-05T01:24:14.404Z,963.50
2019-05-05T01:25:14.743Z,963.52
2019-05-05T01:26:14.366Z,963.55
2019-05-05T01:27:14.617Z,963.53
2019-05-05T01:28:14.310Z,963.54
2019-05-05T01:29:14.563Z,963.58
2019-05-05T01:30:12.532Z,963.62
2019-05-05T01:31:14.549Z,963.65
2019-05-05T01:32:12.372Z,963.68
2019-05-05T01:33:14.443Z,963.70
2019-05-05T01:34:12.256Z,963.71
2019-05-05T01:35:14.326Z,963.76
2019-05-05T01:36:12.138Z,963.75
2019-05-05T01:37:12.081Z,963.77
2019-05-05T01:38:14.070Z,963.75
2019-05-05T01:39:11.965Z,963.76
2019-05-05T01:40:13.720Z,963.80
2019-05-05T01:41:11.851Z,963.84
2019-05-05T01:42:11.790Z,963.83
2019-05-05T01:43:11.734Z,963.85
2019-05-05T01:44:11.705Z,963.89
2019-05-05T01:45:11.617Z,963.92
2019-05-05T01:46:11.558Z,963.89
2019-05-05T01:47:11.499Z,963.91
2019-05-05T01:48:11.439Z,963.93
2019-05-05T01:49:11.413Z,963.92
2019-05-05T01:50:20.448Z,963.96
2019-05-05T01:51:11.269Z,963.98
2019-05-05T01:52:11.211Z,964.04
2019-05-05T01:53:11.148Z,964.01
2019-05-05T01:54:11.136Z,964.06
2019-05-05T01:55:11.035Z,964.09
2019-05-05T01:56:10.974Z,964.07
2019-05-05T01:57:10.921Z,964.11
2019-05-05T01:58:10.863Z,964.13
2019-05-05T01:59:10.835Z,964.14
2019-05-05T02:00:10.744Z,964.15
2019-05-05T02:01:10.684Z,964.19
2019-05-05T02:02:10.626Z,964.21
2019-05-05T02:03:10.599Z,964.20
2019-05-05T02:04:10.511Z,964.23
2019-05-05T02:05:10.485Z,964.23
2019-05-05T02:06:10.394Z,964.24
2019-05-05T02:07:10.337Z,964.25
2019-05-05T02:08:10.279Z,964.20
2019-05-05T02:09:10.250Z,964.19
2019-05-05T02:10:10.160Z,964.15
2019-05-05T02:11:10.107Z,964.20
2019-05-05T02:12:10.043Z,964.17
2019-05-05T02:13:09.987Z,964.15
2019-05-05T02:14:09.962Z,964.19
2019-05-05T02:15:09.869Z,964.25
2019-05-05T02:16:09.811Z,964.25
2019-05-05T02:17:09.754Z,964.25
2019-05-05T02:18:09.695Z,964.26
2019-05-05T02:19:09.679Z,964.27
2019-05-05T02:20:09.581Z,964.31
2019-05-05T02:21:09.521Z,964.22
2019-05-05T02:22:09.466Z,964.25
2019-05-05T02:23:09.407Z,964.23
2019-05-05T02:24:09.389Z,964.25
2019-05-05T02:25:09.289Z,964.19
2019-05-05T02:26:09.230Z,964.24
2019-05-05T02:27:09.192Z,964.26
2019-05-05T02:28:09.117Z,964.30
2019-05-05T02:29:09.097Z,964.31
2019-05-05T02:30:09.034Z,964.30
2019-05-05T02:31:08.944Z,964.33
2019-05-05T02:32:08.879Z,964.35
2019-05-05T02:33:08.824Z,964.34
2019-05-05T02:34:08.765Z,964.34
2019-05-05T02:35:08.738Z,964.28
2019-05-05T02:36:08.678Z,964.26
2019-05-05T02:37:08.592Z,964.26
2019-05-05T02:38:08.531Z,964.22
2019-05-05T02:39:08.472Z,964.21
2019-05-05T02:40:08.436Z,964.22
2019-05-05T02:41:08.388Z,964.21
2019-05-05T02:42:08.331Z,964.20
2019-05-05T02:43:08.261Z,964.24
2019-05-05T02:44:08.186Z,964.21
2019-05-05T02:45:08.130Z,964.24
2019-05-05T02:46:08.069Z,964.26
2019-05-05T02:47:08.045Z,964.26
2019-05-05T02:48:07.951Z,964.27
2019-05-05T02:49:07.895Z,964.31
2019-05-05T02:50:07.837Z,964.31
2019-05-05T02:51:07.804Z,964.31
2019-05-05T02:52:07.717Z,964.31
2019-05-05T02:53:07.659Z,964.32
2019-05-05T02:54:07.599Z,964.36
2019-05-05T02:55:07.581Z,964.40
2019-05-05T02:56:07.515Z,964.35
2019-05-05T02:57:07.460Z,964.35
2019-05-05T02:58:07.367Z,964.35
2019-05-05T02:59:07.310Z,964.37
2019-05-05T03:00:07.249Z,964.40
2019-05-05T03:01:07.191Z,964.38
2019-05-05T03:02:07.174Z,964.38
2019-05-05T03:03:07.076Z,964.40
2019-05-05T03:04:07.017Z,964.43
2019-05-05T03:05:06.958Z,964.41
2019-05-05T03:06:06.899Z,964.46
2019-05-05T03:07:06.871Z,964.45
2019-05-05T03:08:06.782Z,964.47
2019-05-05T03:09:06.725Z,964.51
2019-05-05T03:10:06.666Z,964.51
2019-05-05T03:11:06.642Z,964.51
2019-05-05T03:12:06.554Z,964.54
2019-05-05T03:13:06.491Z,964.58
2019-05-05T03:14:06.440Z,964.54
2019-05-05T03:15:06.369Z,964.55
2019-05-05T03:16:06.355Z,964.59
2019-05-05T03:17:06.257Z,964.63
2019-05-05T03:18:06.192Z,964.60
2019-05-05T03:19:06.136Z,964.69
2019-05-05T03:20:06.084Z,964.73
2019-05-05T03:21:07.442Z,964.74
2019-05-05T03:22:05.961Z,964.78
2019-05-05T03:23:05.904Z,964.78
2019-05-05T03:24:05.845Z,964.79
2019-05-05T03:25:05.785Z,964.80
2019-05-05T03:26:05.758Z,964.84
2019-05-05T03:27:05.668Z,964.84
2019-05-05T03:28:05.626Z,964.82
2019-05-05T03:29:05.553Z,964.86
2019-05-05T03:30:05.509Z,964.85
2019-05-05T03:31:05.466Z,964.86
2019-05-05T03:32:05.858Z,964.85
2019-05-05T03:33:05.786Z,964.88
2019-05-05T03:34:06.284Z,964.88
2019-05-05T03:35:05.200Z,964.89
2019-05-05T03:36:05.147Z,964.90
2019-05-05T03:37:05.113Z,964.93
2019-05-05T03:38:05.072Z,964.95
2019-05-05T03:39:05.225Z,964.94
2019-05-05T03:40:04.906Z,964.95
2019-05-05T03:41:04.886Z,964.96
2019-05-05T03:42:04.788Z,964.98
2019-05-05T03:43:04.731Z,964.99
2019-05-05T03:44:04.913Z,964.96
2019-05-05T03:45:04.646Z,964.98
2019-05-05T03:46:04.556Z,964.98
2019-05-05T03:47:04.496Z,965.01
2019-05-05T03:48:04.665Z,965.02
2019-05-05T03:49:04.860Z,965.02
2019-05-05T03:50:04.470Z,965.04
2019-05-05T03:51:15.999Z,965.04
2019-05-05T03:52:04.845Z,965.03
2019-05-05T03:53:04.969Z,965.02
2019-05-05T03:54:04.433Z,965.05
2019-05-05T03:55:04.033Z,965.03
2019-05-05T03:56:04.012Z,965.00
2019-05-05T03:57:03.944Z,965.00
2019-05-05T03:58:04.163Z,964.97
2019-05-05T03:59:04.945Z,964.98
2019-05-05T04:00:04.428Z,964.95
2019-05-05T04:01:04.281Z,964.99
2019-05-05T04:02:03.995Z,965.01
2019-05-05T04:03:04.310Z,965.01
2019-05-05T04:04:03.502Z,965.03
2019-05-05T04:05:04.034Z,965.03
2019-05-05T04:06:04.403Z,965.05
2019-05-05T04:07:04.714Z,965.08
2019-05-05T04:08:03.914Z,965.07
2019-05-05T04:09:04.300Z,965.09
2019-05-05T04:10:03.754Z,965.11
2019-05-05T04:11:03.935Z,965.10
2019-05-05T04:12:04.421Z,965.11
2019-05-05T04:13:04.677Z,965.10
2019-05-05T04:14:03.674Z,965.06
2019-05-05T04:15:03.700Z,965.04
2019-05-05T04:16:04.066Z,965.07
2019-05-05T04:17:03.541Z,965.07
2019-05-05T04:18:04.018Z,965.04
2019-05-05T04:19:03.592Z,965.04
2019-05-05T04:20:03.835Z,965.05
2019-05-05T04:21:04.005Z,965.03
2019-05-05T04:22:04.248Z,965.06
2019-05-05T04:23:03.741Z,965.02
2019-05-05T04:24:04.055Z,965.04
2019-05-05T04:25:04.508Z,965.00
2019-05-05T04:26:03.854Z,965.03
2019-05-05T04:27:04.059Z,965.03
2019-05-05T04:28:04.219Z,965.02
2019-05-05T04:29:04.660Z,965.05
2019-05-05T04:30:03.880Z,965.10
2019-05-05T04:31:04.099Z,965.08
2019-05-05T04:32:01.869Z,965.15
2019-05-05T04:33:03.673Z,965.16
2019-05-05T04:34:01.782Z,965.17
2019-05-05T04:35:03.680Z,965.22
2019-05-05T04:36:03.765Z,965.20
2019-05-05T04:37:01.569Z,965.18
2019-05-05T04:38:01.510Z,965.22
2019-05-05T04:39:03.660Z,965.24
2019-05-05T04:40:01.392Z,965.25
2019-05-05T04:41:03.354Z,965.27
2019-05-05T04:42:01.275Z,965.27
2019-05-05T04:43:01.216Z,965.29
2019-05-05T04:44:01.191Z,965.28
2019-05-05T04:45:01.101Z,965.34
2019-05-05T04:46:01.045Z,965.34
2019-05-05T04:47:00.985Z,965.34
2019-05-05T04:48:00.959Z,965.33
2019-05-05T04:49:00.869Z,965.34
2019-05-05T04:50:00.838Z,965.36
2019-05-05T04:51:00.748Z,965.42
2019-05-05T04:52:00.690Z,965.41
2019-05-05T04:53:00.633Z,965.43
2019-05-05T04:54:00.619Z,965.43
2019-05-05T04:55:00.517Z,965.48
2019-05-05T04:56:00.457Z,965.43
2019-05-05T04:57:00.403Z,965.44
2019-05-05T04:58:00.340Z,965.46
2019-05-05T04:59:00.320Z,965.47
2019-05-05T05:00:00.223Z,965.50
2019-05-05T05:01:00.166Z,965.54
2019-05-05T05:02:00.106Z,965.52
2019-05-05T05:03:00.052Z,965.57
2019-05-05T05:04:00.024Z,965.58
2019-05-05T05:04:59.932Z,965.58
2019-05-05T05:05:59.872Z,965.60
2019-05-05T05:06:59.811Z,965.59
2019-05-05T05:07:59.756Z,965.60
2019-05-05T05:08:59.729Z,965.64
2019-05-05T05:09:59.672Z,965.59
2019-05-05T05:10:59.578Z,965.63
2019-05-05T05:11:59.521Z,965.64
2019-05-05T05:12:59.467Z,965.64
2019-05-05T05:13:59.427Z,965.63
2019-05-05T05:14:59.345Z,965.61
2019-05-05T05:15:59.326Z,965.65
2019-05-05T05:16:59.230Z,965.65
2019-05-05T05:17:59.170Z,965.67
2019-05-05T05:18:59.113Z,965.65
2019-05-05T05:19:59.057Z,965.65
2019-05-05T05:20:59.027Z,965.62
2019-05-05T05:22:01.997Z,965.62
2019-05-05T05:22:58.884Z,965.63
2019-05-05T05:23:58.822Z,965.64
2019-05-05T05:24:58.762Z,965.63
2019-05-05T05:25:58.742Z,965.61
2019-05-05T05:26:58.655Z,965.64
2019-05-05T05:27:58.590Z,965.62
2019-05-05T05:28:58.530Z,965.66
2019-05-05T05:29:58.472Z,965.60
2019-05-05T05:30:58.446Z,965.59
2019-05-05T05:31:58.362Z,965.58
2019-05-05T05:32:58.297Z,965.58
2019-05-05T05:33:58.278Z,965.52
2019-05-05T05:34:58.178Z,965.54
2019-05-05T05:35:58.121Z,965.55
2019-05-05T05:36:58.066Z,965.56
2019-05-05T05:37:58.005Z,965.61
2019-05-05T05:38:57.988Z,965.61
2019-05-05T05:39:57.900Z,965.63
2019-05-05T05:40:57.831Z,965.62
2019-05-05T05:41:57.772Z,965.58
2019-05-05T05:42:57.716Z,965.60
2019-05-05T05:43:57.689Z,965.59
2019-05-05T05:44:57.598Z,965.58
2019-05-05T05:45:57.571Z,965.57
2019-05-05T05:46:57.479Z,965.58
2019-05-05T05:47:57.426Z,965.62
2019-05-05T05:48:57.365Z,965.63
2019-05-05T05:49:57.310Z,965.65
2019-05-05T05:50:57.280Z,965.63
2019-05-05T05:51:57.191Z,965.67
2019-05-05T05:52:57.134Z,965.71
2019-05-05T05:53:57.077Z,965.71
2019-05-05T05:54:57.032Z,965.71
2019-05-05T05:55:57.000Z,965.70
2019-05-05T05:56:56.940Z,965.70
2019-05-05T05:57:56.841Z,965.67
2019-05-05T05:58:56.787Z,965.70
2019-05-05T05:59:56.725Z,965.67
2019-05-05T06:00:56.668Z,965.73
2019-05-05T06:02:08.943Z,965.73
2019-05-05T06:02:56.575Z,965.72
2019-05-05T06:03:56.501Z,965.72
2019-05-05T06:04:56.437Z,965.75
2019-05-05T06:05:56.374Z,965.78
2019-05-05T06:06:56.323Z,965.77
2019-05-05T06:07:56.296Z,965.80
2019-05-05T06:08:56.235Z,965.73
2019-05-05T06:09:56.182Z,965.74
2019-05-05T06:10:56.084Z,965.74
2019-05-05T06:11:56.030Z,965.74
2019-05-05T06:12:55.993Z,965.78
2019-05-05T06:13:55.919Z,965.81
2019-05-05T06:14:55.855Z,965.82
2019-05-05T06:15:55.797Z,965.82
2019-05-05T06:16:55.738Z,965.80
2019-05-05T06:17:55.738Z,965.81
2019-05-05T06:18:55.624Z,965.82
2019-05-05T06:19:55.569Z,965.81
2019-05-05T06:20:55.505Z,965.80
2019-05-05T06:21:55.481Z,965.82
2019-05-05T06:22:55.390Z,965.77
2019-05-05T06:23:55.368Z,965.78
2019-05-05T06:24:55.275Z,965.80
2019-05-05T06:25:55.382Z,965.79
2019-05-05T06:26:55.159Z,965.82
2019-05-05T06:27:55.140Z,965.80
2019-05-05T06:28:55.045Z,965.81
2019-05-05T06:29:54.985Z,965.84
2019-05-05T06:30:54.968Z,965.87
2019-05-05T06:31:54.888Z,965.84
2019-05-05T06:32:54.856Z,965.88
2019-05-05T06:33:54.753Z,965.86
2019-05-05T06:34:54.699Z,965.91
2019-05-05T06:35:55.572Z,965.90
2019-05-05T06:36:54.582Z,965.89
2019-05-05T06:37:54.852Z,965.94
2019-05-05T06:38:54.470Z,965.93
2019-05-05T06:39:54.534Z,965.96
2019-05-05T06:40:54.348Z,965.97
2019-05-05T06:41:54.290Z,965.93
2019-05-05T06:42:54.266Z,965.99
2019-05-05T06:43:54.339Z,965.99
2019-05-05T06:44:54.118Z,965.99
2019-05-05T06:45:54.058Z,966.00
2019-05-05T06:46:54.023Z,966.00
2019-05-05T06:47:53.945Z,965.97
2019-05-05T06:48:53.969Z,965.97
2019-05-05T06:49:54.255Z,965.95
2019-05-05T06:50:54.431Z,965.95
2019-05-05T06:51:54.696Z,965.94
2019-05-05T06:52:53.761Z,965.91
2019-05-05T06:53:54.079Z,965.94
2019-05-05T06:54:54.280Z,965.95
2019-05-05T06:55:54.286Z,965.98
2019-05-05T06:56:53.938Z,965.95
2019-05-05T06:57:53.921Z,965.98
2019-05-05T06:58:54.052Z,965.94
2019-05-05T06:59:54.395Z,966.02
2019-05-05T07:00:54.254Z,966.03
2019-05-05T07:01:53.686Z,965.98
2019-05-05T07:02:54.075Z,966.00
2019-05-05T07:03:54.180Z,966.01
2019-05-05T07:04:54.680Z,966.00
2019-05-05T07:05:53.906Z,965.98
2019-05-05T07:06:56.721Z,965.97
2019-05-05T07:07:53.733Z,965.94
2019-05-05T07:08:54.595Z,965.95
2019-05-05T07:09:54.280Z,965.94
2019-05-05T07:10:54.757Z,965.93
2019-05-05T07:11:54.133Z,965.99
2019-05-05T07:12:54.380Z,965.98
2019-05-05T07:13:53.703Z,966.03
2019-05-05T07:14:53.843Z,966.06
2019-05-05T07:15:54.249Z,966.06
2019-05-05T07:16:54.360Z,966.12
2019-05-05T07:17:53.587Z,966.12
2019-05-05T07:18:53.973Z,966.11
2019-05-05T07:19:54.197Z,966.16
2019-05-05T07:20:52.047Z,966.14
2019-05-05T07:21:53.812Z,966.18
2019-05-05T07:22:59.726Z,966.14
2019-05-05T07:23:53.802Z,966.22
2019-05-05T07:24:54.024Z,966.21
2019-05-05T07:25:51.758Z,966.21
2019-05-05T07:26:53.946Z,966.20
2019-05-05T07:27:51.675Z,966.19
2019-05-05T07:28:51.586Z,966.28
2019-05-05T07:29:51.571Z,966.28
2019-05-05T07:30:51.584Z,966.31
2019-05-05T07:31:51.447Z,966.31
2019-05-05T07:32:53.600Z,966.32
2019-05-05T07:33:51.338Z,966.29
2019-05-05T07:34:51.243Z,966.35
2019-05-05T07:35:56.737Z,966.34
2019-05-05T07:36:51.150Z,966.40
2019-05-05T07:37:51.073Z,966.41
2019-05-05T07:38:51.135Z,966.43
2019-05-05T07:39:50.963Z,966.43
2019-05-05T07:40:50.907Z,966.41
2019-05-05T07:41:50.849Z,966.42
2019-05-05T07:42:50.790Z,966.41
2019-05-05T07:43:50.765Z,966.40
2019-05-05T07:44:50.681Z,966.39
2019-05-05T07:45:50.624Z,966.41
2019-05-05T07:46:50.564Z,966.36
2019-05-05T07:47:50.541Z,966.42
2019-05-05T07:48:50.486Z,966.39
2019-05-05T07:49:50.394Z,966.38
2019-05-05T07:51:01.238Z,966.39
2019-05-05T07:51:50.309Z,966.38
2019-05-05T07:52:50.258Z,966.35
2019-05-05T07:53:50.168Z,966.34
2019-05-05T07:54:50.114Z,966.35
2019-05-05T07:55:50.097Z,966.31
2019-05-05T07:56:49.999Z,966.36
2019-05-05T07:57:49.943Z,966.36
2019-05-05T07:58:49.891Z,966.33
2019-05-05T07:59:49.858Z,966.33
2019-05-05T08:00:49.813Z,966.33
2019-05-05T08:01:49.721Z,966.39
2019-05-05T08:02:49.700Z,966.39
2019-05-05T08:03:49.607Z,966.36
2019-05-05T08:04:49.559Z,966.40
2019-05-05T08:05:49.498Z,966.42
2019-05-05T08:06:49.442Z,966.40
2019-05-05T08:07:49.417Z,966.38
2019-05-05T08:08:49.330Z,966.42
2019-05-05T08:09:49.283Z,966.44
2019-05-05T08:10:49.217Z,966.47
2019-05-05T08:11:49.164Z,966.48
2019-05-05T08:12:49.143Z,966.46
2019-05-05T08:13:49.055Z,966.40
2019-05-05T08:14:49.000Z,966.46
2019-05-05T08:15:59.128Z,966.48
2019-05-05T08:16:48.891Z,966.48
2019-05-05T08:17:48.880Z,966.49
2019-05-05T08:18:48.780Z,966.52
2019-05-05T08:19:48.730Z,966.54
2019-05-05T08:20:48.670Z,966.56
2019-05-05T08:21:48.624Z,966.53
2019-05-05T08:22:48.608Z,966.54
2019-05-05T08:23:48.508Z,966.48
2019-05-05T08:24:48.455Z,966.53
2019-05-05T08:25:48.552Z,966.50
2019-05-05T08:26:48.406Z,966.45
2019-05-05T08:27:48.335Z,966.51
2019-05-05T08:28:48.239Z,966.50
2019-05-05T08:29:48.180Z,966.50
2019-05-05T08:30:48.124Z,966.56
2019-05-05T08:31:48.072Z,966.59
2019-05-05T08:32:48.055Z,966.58
2019-05-05T08:33:47.959Z,966.68
2019-05-05T08:34:57.380Z,966.66
2019-05-05T08:35:47.859Z,966.72
2019-05-05T08:36:47.798Z,966.79
2019-05-05T08:37:47.746Z,967.02
2019-05-05T08:38:47.690Z,966.96
2019-05-05T08:39:47.669Z,966.59
2019-05-05T08:40:47.619Z,966.88
2019-05-05T08:41:47.549Z,966.64
2019-05-05T08:42:47.477Z,966.63
2019-05-05T08:43:47.423Z,966.75
2019-05-05T08:44:47.402Z,966.85
2019-05-05T08:45:47.318Z,966.90
2019-05-05T08:46:47.297Z,966.99
2019-05-05T08:47:47.271Z,966.85
2019-05-05T08:48:47.169Z,966.71
2019-05-05T08:49:47.141Z,966.70
2019-05-05T08:50:47.089Z,966.65
2019-05-05T08:51:47.007Z,966.66
2019-05-05T08:52:46.956Z,966.68
2019-05-05T08:53:48.326Z,966.64
2019-05-05T08:54:46.851Z,966.72
2019-05-05T08:55:47.216Z,966.73
2019-05-05T08:56:46.751Z,966.79
2019-05-05T08:57:46.704Z,966.77
2019-05-05T08:58:49.687Z,966.80
2019-05-05T08:59:46.595Z,966.71
2019-05-05T09:00:46.544Z,966.68
2019-05-05T09:01:46.492Z,966.72
2019-05-05T09:02:46.442Z,966.74
2019-05-05T09:03:46.419Z,966.75
2019-05-05T09:04:46.337Z,966.76
2019-05-05T09:05:46.286Z,966.83
2019-05-05T09:06:46.235Z,966.86
2019-05-05T09:07:46.215Z,966.86
2019-05-05T09:08:46.130Z,966.89
2019-05-05T09:09:46.081Z,966.84
2019-05-05T09:10:46.031Z,966.87
2019-05-05T09:11:45.976Z,966.87
2019-05-05T09:12:45.957Z,966.84
2019-05-05T09:13:45.873Z,966.87
2019-05-05T09:14:45.861Z,966.87
2019-05-05T09:15:45.773Z,966.84
2019-05-05T09:16:45.720Z,966.81
2019-05-05T09:17:45.670Z,966.87
2019-05-05T09:18:45.628Z,966.86
2019-05-05T09:19:45.597Z,966.88
2019-05-05T09:20:45.518Z,966.89
2019-05-05T09:21:45.465Z,966.91
2019-05-05T09:22:46.101Z,966.92
2019-05-05T09:23:58.961Z,966.94
2019-05-05T09:24:45.343Z,966.93
2019-05-05T09:25:45.276Z,966.95
2019-05-05T09:26:45.243Z,966.94
2019-05-05T09:27:45.158Z,966.98
2019-05-05T09:28:45.112Z,967.00
2019-05-05T09:29:45.099Z,966.98
2019-05-05T09:30:45.047Z,966.98
2019-05-05T09:31:45.174Z,966.94
2019-05-05T09:32:44.912Z,966.98
2019-05-05T09:33:44.861Z,966.93
2019-05-05T09:34:44.842Z,966.94
2019-05-05T09:35:44.793Z,966.95
2019-05-05T09:36:44.719Z,966.97
2019-05-05T09:37:44.663Z,966.99
2019-05-05T09:38:45.093Z,967.01
2019-05-05T09:39:44.602Z,966.96
2019-05-05T09:40:44.519Z,966.96
2019-05-05T09:41:44.707Z,966.94
2019-05-05T09:42:44.443Z,966.96
2019-05-05T09:43:44.713Z,966.93
2019-05-05T09:44:45.149Z,966.94
2019-05-05T09:45:44.382Z,966.95
2019-05-05T09:46:44.717Z,966.94
2019-05-05T09:47:44.976Z,966.97
2019-05-05T09:48:44.183Z,966.95
2019-05-05T09:49:44.689Z,967.01
2019-05-05T09:50:44.019Z,967.05
2019-05-05T09:51:45.630Z,967.06
2019-05-05T09:52:44.393Z,967.02
2019-05-05T09:53:44.812Z,967.04
2019-05-05T09:54:44.085Z,967.03
2019-05-05T09:55:44.402Z,967.05
2019-05-05T09:56:44.435Z,967.06
2019-05-05T09:57:43.947Z,967.07
2019-05-05T09:58:44.111Z,967.08
2019-05-05T09:59:44.139Z,967.10
2019-05-05T10:00:44.162Z,967.09
2019-05-05T10:01:44.491Z,967.12
2019-05-05T10:02:44.197Z,967.10
2019-05-05T10:03:44.707Z,967.14
2019-05-05T10:04:44.135Z,967.10
2019-05-05T10:05:43.307Z,967.12
2019-05-05T10:06:47.344Z,967.12
2019-05-05T10:07:44.083Z,967.09
2019-05-05T10:08:44.603Z,967.08
2019-05-05T10:09:43.761Z,967.09
2019-05-05T10:10:44.261Z,967.08
2019-05-05T10:11:44.917Z,967.04
2019-05-05T10:12:44.552Z,967.11
2019-05-05T10:13:44.225Z,967.14
2019-05-05T10:14:44.901Z,967.11
2019-05-05T10:15:44.300Z,967.10
2019-05-05T10:16:42.777Z,967.12
2019-05-05T10:17:42.764Z,967.07
2019-05-05T10:18:44.664Z,967.08
2019-05-05T10:19:44.014Z,967.14
2019-05-05T10:20:42.593Z,967.13
2019-05-05T10:21:44.446Z,967.13
2019-05-05T10:22:43.815Z,967.16
2019-05-05T10:23:43.586Z,967.20
2019-05-05T10:24:44.236Z,967.18
2019-05-05T10:25:44.531Z,967.13
2019-05-05T10:26:43.819Z,967.18
2019-05-05T10:27:45.467Z,967.12
2019-05-05T10:28:44.358Z,967.12
2019-05-05T10:29:44.079Z,967.15
2019-05-05T10:30:42.099Z,967.14
2019-05-05T10:31:43.692Z,967.12
2019-05-05T10:32:43.452Z,967.13
2019-05-05T10:33:41.952Z,967.10
2019-05-05T10:34:43.817Z,967.11
2019-05-05T10:35:43.760Z,967.08
2019-05-05T10:36:41.811Z,967.09
2019-05-05T10:37:43.713Z,967.10
2019-05-05T10:38:41.707Z,967.09
2019-05-05T10:39:43.886Z,967.08
2019-05-05T10:40:41.653Z,967.11
2019-05-05T10:41:41.568Z,967.08
2019-05-05T10:42:41.513Z,967.09
2019-05-05T10:43:43.614Z,967.13
2019-05-05T10:44:41.417Z,967.11
2019-05-05T10:45:41.398Z,967.09
2019-05-05T10:46:41.356Z,967.08
2019-05-05T10:47:41.271Z,967.13
2019-05-05T10:48:41.228Z,967.12
2019-05-05T10:49:41.173Z,967.11
2019-05-05T10:50:41.132Z,967.09
2019-05-05T10:51:41.114Z,967.11
2019-05-05T10:52:41.037Z,967.08
2019-05-05T10:53:41.018Z,967.06
2019-05-05T10:54:44.585Z,967.00
2019-05-05T10:55:40.950Z,966.98
2019-05-05T10:56:40.882Z,966.96
2019-05-05T10:57:40.792Z,966.97
2019-05-05T10:58:40.796Z,966.97
2019-05-05T10:59:40.701Z,966.97
2019-05-05T11:00:40.653Z,966.96
2019-05-05T11:01:40.637Z,967.02
2019-05-05T11:02:40.557Z,967.02
2019-05-05T11:03:40.512Z,967.01
2019-05-05T11:04:40.462Z,966.97
2019-05-05T11:05:40.413Z,967.00
2019-05-05T11:06:40.404Z,966.99
2019-05-05T11:07:40.318Z,967.03
2019-05-05T11:08:40.272Z,967.09
2019-05-05T11:09:40.221Z,967.07
2019-05-05T11:10:40.173Z,967.04
2019-05-05T11:11:40.161Z,967.03
2019-05-05T11:12:40.081Z,967.04
2019-05-05T11:13:42.743Z,967.01
2019-05-05T11:14:39.981Z,966.99
2019-05-05T11:15:39.977Z,967.03
2019-05-05T11:16:39.889Z,967.04
2019-05-05T11:17:39.836Z,967.09
2019-05-05T11:18:39.789Z,967.04
2019-05-05T11:19:39.742Z,967.06
2019-05-05T11:20:39.724Z,967.00
2019-05-05T11:21:39.644Z,967.02
2019-05-05T11:22:39.863Z,967.04
2019-05-05T11:23:39.549Z,967.05
2019-05-05T11:24:39.500Z,967.03
2019-05-05T11:25:39.500Z,967.04
2019-05-05T11:26:39.406Z,967.06
2019-05-05T11:27:39.357Z,966.99
2019-05-05T11:28:39.317Z,966.95
2019-05-05T11:29:39.260Z,966.92
2019-05-05T11:30:39.247Z,967.01
2019-05-05T11:31:39.198Z,966.93
2019-05-05T11:32:39.118Z,966.90
2019-05-05T11:33:39.068Z,966.87
2019-05-05T11:34:39.023Z,966.99
2019-05-05T11:35:39.013Z,966.95
2019-05-05T11:36:38.956Z,966.90
2019-05-05T11:37:38.880Z,966.88
2019-05-05T11:38:41.457Z,966.93
2019-05-05T11:39:38.785Z,966.94
2019-05-05T11:40:38.735Z,966.92
2019-05-05T11:41:38.689Z,966.88
2019-05-05T11:42:38.697Z,966.89
2019-05-05T11:43:38.633Z,966.89
2019-05-05T11:44:38.547Z,966.88
2019-05-05T11:45:38.496Z,966.87
2019-05-05T11:46:38.447Z,966.84
2019-05-05T11:47:38.449Z,966.84
2019-05-05T11:48:38.358Z,966.87
2019-05-05T11:49:38.351Z,966.87
2019-05-05T11:50:39.085Z,966.85
2019-05-05T11:51:38.209Z,966.90
2019-05-05T11:52:38.161Z,966.98
2019-05-05T11:53:38.114Z,967.01
2019-05-05T11:54:38.262Z,967.01
2019-05-05T11:55:38.020Z,967.03
2019-05-05T11:56:37.970Z,967.03
2019-05-05T11:57:37.925Z,966.98
2019-05-05T11:58:37.874Z,966.99
2019-05-05T11:59:37.863Z,966.94
2019-05-05T12:00:38.690Z,966.96
2019-05-05T12:01:37.764Z,966.95
2019-05-05T12:02:37.681Z,966.94
2019-05-05T12:03:37.942Z,966.91
2019-05-05T12:04:37.628Z,966.93
2019-05-05T12:05:37.537Z,966.93
2019-05-05T12:06:37.490Z,966.94
2019-05-05T12:07:37.444Z,966.92
2019-05-05T12:08:37.397Z,966.91
2019-05-05T12:09:37.382Z,966.92
2019-05-05T12:10:37.303Z,966.91
2019-05-05T12:11:37.251Z,966.90
2019-05-05T12:12:37.208Z,966.93
2019-05-05T12:13:37.185Z,966.94
2019-05-05T12:14:37.113Z,966.95
2019-05-05T12:15:37.059Z,966.97
2019-05-05T12:16:37.010Z,966.96
2019-05-05T12:17:36.998Z,966.96
2019-05-05T12:18:36.914Z,966.96
2019-05-05T12:19:36.865Z,966.97
2019-05-05T12:20:36.816Z,967.05
2019-05-05T12:21:36.765Z,967.03
2019-05-05T12:22:36.752Z,967.02
2019-05-05T12:23:36.683Z,967.03
2019-05-05T12:24:36.622Z,967.02
2019-05-05T12:25:36.612Z,967.03
2019-05-05T12:26:36.524Z,967.05
2019-05-05T12:27:36.472Z,967.04